Orbital elements of COSMOS 1823 DEB
| Launched | 19 February 1987 |
| Flight ended | – |
| Launch site | Plesetsk Missile and Space Complex, Russia |
| Owner | Commonwealth of Independent States (former USSR) |
| NORAD ID | 20285 |
| Date fetched |
Epoch osculation |
Inc. [°] |
Ecc. | RA asc node [hr] |
Arg Peri. [°] |
Mean anom [°] |
Mean motion [rev/day] |
Abs. mag |
| Date fetched |
Epoch osculation |
Inc. [°] |
Ecc. | RA asc node [hr] |
Arg Peri. [°] |
Mean anom [°] |
Mean motion [rev/day] |
Abs. mag |
| 2026 May 06 17:57 | 2026 May 02 04:49:14 | 73.6430 | 0.00794 | 13.3194 | 288.1407 | 98.6729 | 12.30530 | – |
| 2026 May 05 17:57 | 2026 May 02 04:49:14 | 73.6430 | 0.00794 | 13.3194 | 288.1407 | 98.6729 | 12.30530 | – |
| 2026 May 04 17:57 | 2026 Apr 28 05:13:30 | 73.6433 | 0.00794 | 13.6675 | 293.6921 | 98.6729 | 12.30530 | – |
| 2026 May 03 17:57 | 2026 Apr 28 05:13:30 | 73.6433 | 0.00794 | 13.6675 | 293.6921 | 98.6729 | 12.30530 | – |
| 2026 May 02 17:57 | 2026 Apr 28 05:13:30 | 73.6433 | 0.00794 | 13.6675 | 293.6921 | 98.6729 | 12.30530 | – |
| 2026 May 01 17:56 | 2026 Apr 28 05:13:30 | 73.6433 | 0.00794 | 13.6675 | 293.6921 | 98.6729 | 12.30530 | – |
| 2026 Apr 30 17:56 | 2026 Apr 28 05:13:30 | 73.6433 | 0.00794 | 13.6675 | 293.6921 | 98.6729 | 12.30530 | – |
| 2026 Apr 29 17:57 | 2026 Apr 23 01:09:53 | 73.6433 | 0.00792 | 14.1194 | 300.9607 | 98.6729 | 12.30530 | – |
| 2026 Apr 28 17:56 | 2026 Apr 23 01:09:53 | 73.6433 | 0.00792 | 14.1194 | 300.9607 | 98.6729 | 12.30530 | – |
| 2026 Apr 27 17:58 | 2026 Apr 23 01:09:53 | 73.6433 | 0.00792 | 14.1194 | 300.9607 | 98.6729 | 12.30530 | – |
| 2026 Apr 26 17:58 | 2026 Apr 23 01:09:53 | 73.6433 | 0.00792 | 14.1194 | 300.9607 | 98.6729 | 12.30530 | – |
| 2026 Apr 25 17:58 | 2026 Apr 23 01:09:53 | 73.6433 | 0.00792 | 14.1194 | 300.9607 | 98.6729 | 12.30530 | – |
| 2026 Apr 24 17:59 | 2026 Apr 23 01:09:53 | 73.6433 | 0.00792 | 14.1194 | 300.9607 | 98.6729 | 12.30530 | – |
| 2026 Apr 23 17:57 | 2026 Apr 19 06:36:42 | 73.6432 | 0.00791 | 14.4492 | 306.2794 | 98.6729 | 12.30530 | – |
| 2026 Apr 22 17:57 | 2026 Apr 19 06:36:42 | 73.6432 | 0.00791 | 14.4492 | 306.2794 | 98.6729 | 12.30530 | – |
| 2026 Apr 21 17:57 | 2026 Apr 19 06:36:42 | 73.6432 | 0.00791 | 14.4492 | 306.2794 | 98.6729 | 12.30530 | – |
| 2026 Apr 20 17:57 | 2026 Apr 19 06:36:42 | 73.6432 | 0.00791 | 14.4492 | 306.2794 | 98.6729 | 12.30530 | – |
| 2026 Apr 19 17:58 | 2026 Apr 19 06:36:42 | 73.6432 | 0.00791 | 14.4492 | 306.2794 | 98.6729 | 12.30530 | – |
| 2026 Apr 18 17:56 | 2026 Apr 11 07:23:54 | 73.6413 | 0.00789 | 15.1457 | 317.5309 | 98.6729 | 12.30530 | – |
| 2026 Apr 16 17:57 | 2026 Apr 11 07:23:54 | 73.6413 | 0.00789 | 15.1457 | 317.5309 | 98.6729 | 12.30530 | – |
| 2026 Apr 14 17:57 | 2026 Apr 11 07:23:54 | 73.6413 | 0.00789 | 15.1457 | 317.5309 | 98.6729 | 12.30530 | – |
| 2026 Apr 13 17:57 | 2026 Apr 11 07:23:54 | 73.6413 | 0.00789 | 15.1457 | 317.5309 | 98.6729 | 12.30530 | – |
| 2026 Apr 12 17:57 | 2026 Apr 06 08:24:43 | 73.6442 | 0.00789 | 15.5793 | 324.6338 | 98.6729 | 12.30530 | – |
| 2026 Apr 11 17:57 | 2026 Apr 06 08:24:43 | 73.6442 | 0.00789 | 15.5793 | 324.6338 | 98.6729 | 12.30530 | – |
| 2026 Apr 10 17:58 | 2026 Apr 06 08:24:43 | 73.6442 | 0.00789 | 15.5793 | 324.6338 | 98.6729 | 12.30530 | – |
| 2026 Apr 09 18:01 | 2026 Apr 06 08:24:43 | 73.6442 | 0.00789 | 15.5793 | 324.6338 | 98.6729 | 12.30530 | – |